.
WxDataArchive / Data Records for 2014-07-01
2014-06-30 July 2014 2014-07-02

Data Records for Tuesday, 01 July 2014

Time	Temp	Chill	HIndex	Humid	Dewpt	 Wind 	HiWind	WindDir	Rain 	Barom
-----	----	-----	------	-----	-----	------	------	-------	-----	-----
00:00	76.1	76.1	76.7	85	71.2	0	1	135	0.00	29.725 
00:05	76.1	76.1	76.6	86	71.6	0	1	135	0.00	29.725 
00:10	76.1	76.1	76.6	86	71.6	0	2	135	0.00	29.725 
00:15	76.1	76.1	76.6	86	71.6	0	1	135	0.00	29.702 
00:20	76.3	76.3	76.9	87	72.1	1	5	90	0.00	29.702 
00:25	76.5	76.5	77.3	87	72.3	0	4	112	0.00	29.702 
00:30	76.7	76.7	77.7	87	72.5	0	4	158	0.00	29.698 
00:35	76.8	76.8	77.9	87	72.6	0	3	135	0.00	29.698 
00:40	77.2	77.2	78.7	87	73.0	1	4	112	0.00	29.698 
00:45	77.4	77.4	79.2	86	72.9	0	2	45	0.00	29.689 
00:50	77.4	77.4	79.2	86	72.9	0	3	45	0.00	29.689 
00:55	77.6	77.6	79.6	86	73.1	1	4	68	0.00	29.689 
01:00	77.7	77.7	79.8	86	73.2	1	7	0	0.00	29.664 
01:05	77.7	77.7	79.8	86	73.2	1	4	90	0.00	29.664 
01:10	77.9	77.9	80.2	85	73.0	0	3	112	0.00	29.664 
01:15	77.9	77.9	80.2	85	73.0	0	3	112	0.00	29.674 
01:20	77.9	77.9	80.2	85	73.0	1	6	112	0.00	29.674 
01:25	78.1	78.1	80.6	85	73.2	1	4	22	0.00	29.674 
01:30	78.1	78.1	80.6	85	73.2	0	2	45	0.00	29.685 
01:35	78.3	78.3	81.0	85	73.4	1	5	270	0.00	29.685 
01:40	78.3	78.3	81.0	85	73.4	1	3	112	0.00	29.685 
01:45	78.5	78.5	81.4	84	73.2	1	3	68	0.00	29.675 
01:50	78.5	78.5	81.4	84	73.2	1	5	248	0.00	29.675 
01:55	78.6	78.6	81.6	84	73.3	2	9	68	0.00	29.675 
02:00	76.3	76.3	77.6	77	68.5	5	18	270	0.05	29.721 
02:05	72.1	72.1	72.1	82	66.3	4	10	270	0.20	29.721 
02:10	70.3	70.3	70.3	86	65.9	1	2	270	0.04	29.721 
02:15	69.3	69.3	69.3	88	65.6	2	6	270	0.02	29.749 
02:20	68.6	68.6	68.6	90	65.5	2	6	270	0.00	29.749 
02:25	68.3	68.3	68.3	91	65.6	2	6	270	0.00	29.749 
02:30	68.1	68.1	68.1	92	65.7	3	7	270	0.00	29.755 
02:35	68.1	68.1	68.1	92	65.7	4	9	270	0.00	29.755 
02:40	67.9	67.9	67.9	92	65.5	5	12	270	0.00	29.755 
02:45	67.9	67.9	67.9	92	65.5	3	6	270	0.00	29.770 
02:50	67.8	67.8	67.8	92	65.4	2	7	292	0.00	29.770 
02:55	67.8	67.8	67.8	92	65.4	3	7	315	0.00	29.770 
03:00	67.8	67.8	67.8	92	65.4	2	6	292	0.00	29.774 
03:05	67.6	67.6	67.6	92	65.2	2	7	292	0.00	29.774 
03:10	67.6	67.6	67.6	91	64.9	1	4	292	0.00	29.774 
03:15	67.6	67.6	67.6	91	64.9	1	3	292	0.00	29.787 
03:20	67.4	67.4	67.4	90	64.4	0	2	292	0.00	29.787 
03:25	67.3	67.3	67.3	90	64.3	0	3	292	0.00	29.787 
03:30	67.1	67.1	67.1	90	64.1	0	1	292	0.01	29.770 
03:35	67.1	67.1	67.1	90	64.1	0	1	292	0.00	29.770 
03:40	66.9	66.9	66.9	91	64.2	0	0	---	0.01	29.770 
03:45	66.9	66.9	66.9	91	64.2	0	0	---	0.00	29.763 
03:50	66.8	66.8	66.8	92	64.4	0	1	292	0.01	29.763 
03:55	66.8	66.8	66.8	92	64.4	1	3	292	0.01	29.763 
04:00	66.6	66.6	66.6	92	64.2	1	3	292	0.01	29.672 
04:05	66.4	66.4	66.4	93	64.3	0	1	292	0.00	29.672 
04:10	66.3	66.3	66.3	93	64.2	0	1	292	0.00	29.672 
04:15	66.3	66.3	66.3	93	64.2	0	2	292	0.00	29.634 
04:20	66.1	66.1	66.1	93	64.0	1	3	202	0.00	29.634 
04:25	66.0	66.0	66.0	93	63.9	1	3	135	0.00	29.634 
04:30	65.8	65.8	65.8	93	63.7	1	2	135	0.00	29.574 
04:35	65.6	65.6	65.6	93	63.5	1	3	135	0.00	29.574 
04:40	65.6	65.6	65.6	93	63.5	0	1	135	0.00	29.574 
04:45	65.6	65.6	65.6	93	63.5	0	1	135	0.00	29.619 
04:50	65.6	65.6	65.6	94	63.8	0	1	135	0.00	29.619 
04:55	65.6	65.6	65.6	94	63.8	0	1	135	0.00	29.619 
05:00	65.6	65.6	65.6	94	63.8	0	0	---	0.00	29.657 
05:05	65.8	65.8	65.8	94	64.0	0	0	---	0.00	29.657 
05:10	65.8	65.8	65.8	94	64.0	0	1	135	0.00	29.657 
05:15	66.0	66.0	66.0	94	64.2	0	1	135	0.00	29.661 
05:20	66.0	66.0	66.0	94	64.2	0	1	135	0.00	29.661 
05:25	66.0	66.0	66.0	94	64.2	0	1	135	0.00	29.661 
05:30	66.0	66.0	66.0	94	64.2	0	1	135	0.00	29.680 
05:35	66.0	66.0	66.0	94	64.2	0	1	135	0.00	29.680 
05:40	66.0	66.0	66.0	94	64.2	0	1	135	0.00	29.680 
05:45	66.1	66.1	66.1	94	64.3	0	2	68	0.00	29.685 
05:50	66.1	66.1	66.1	94	64.3	0	2	68	0.00	29.685 
05:55	66.0	66.0	66.0	94	64.2	0	3	68	0.00	29.685 
06:00	66.0	66.0	66.0	94	64.2	0	4	270	0.00	29.685 
06:05	66.0	66.0	66.0	94	64.2	0	1	270	0.00	29.685 
06:10	66.0	66.0	66.0	94	64.2	0	1	270	0.00	29.685 
06:15	65.8	65.8	65.8	94	64.0	0	3	292	0.00	29.696 
06:20	65.8	65.8	65.8	94	64.0	0	2	292	0.00	29.696 
06:25	65.8	65.8	65.8	94	64.0	0	4	292	0.00	29.696 
06:30	65.8	65.8	65.8	94	64.0	0	2	292	0.00	29.679 
06:35	65.8	65.8	65.8	94	64.0	0	3	292	0.00	29.679 
06:40	65.8	65.8	65.8	94	64.0	0	2	292	0.00	29.679 
06:45	65.8	65.8	65.8	94	64.0	0	1	292	0.00	29.654 
06:50	65.6	65.6	65.6	94	63.8	0	2	292	0.00	29.654 
06:55	65.6	65.6	65.6	94	63.8	0	1	292	0.00	29.654 
07:00	65.8	65.8	65.8	94	64.0	0	1	292	0.00	29.654 
07:05	65.8	65.8	65.8	94	64.0	0	1	292	0.00	29.654 
07:10	66.0	66.0	66.0	94	64.2	0	1	292	0.00	29.654 
07:15	66.0	66.0	66.0	94	64.2	0	0	---	0.00	29.669 
07:20	66.1	66.1	66.1	94	64.3	0	1	292	0.00	29.669 
07:25	66.3	66.3	66.3	94	64.5	0	1	292	0.00	29.669 
07:30	66.3	66.3	66.3	94	64.5	0	1	292	0.00	29.683 
07:35	66.4	66.4	66.4	94	64.6	0	1	292	0.00	29.683 
07:40	66.4	66.4	66.4	94	64.6	0	1	292	0.00	29.683 
07:45	66.6	66.6	66.6	94	64.8	0	2	225	0.00	29.691 
07:50	66.9	66.9	66.9	94	65.1	0	2	225	0.00	29.691 
07:55	67.3	67.3	67.3	93	65.2	0	3	225	0.00	29.691 
08:00	67.4	67.4	67.4	93	65.3	0	1	248	0.00	29.711 
08:05	67.4	67.4	67.4	92	65.0	0	2	248	0.00	29.711 
08:10	67.6	67.6	67.6	92	65.2	1	4	248	0.00	29.711 
08:15	67.9	67.9	67.9	92	65.5	0	3	315	0.00	29.713 
08:20	68.4	68.4	68.4	91	65.7	1	2	315	0.00	29.713 
08:25	68.9	68.9	68.9	90	65.8	0	3	315	0.00	29.713 
08:30	68.9	68.9	68.9	88	65.2	1	6	292	0.00	29.715 
08:35	69.1	69.1	69.1	88	65.4	1	4	292	0.00	29.715 
08:40	69.3	69.3	69.3	87	65.3	1	4	315	0.00	29.715 
08:45	69.6	69.6	69.6	86	65.2	1	3	315	0.00	29.726 
08:50	70.1	70.1	70.1	85	65.4	1	3	315	0.00	29.726 
08:55	70.8	70.8	70.8	84	65.7	1	3	338	0.00	29.726 
09:00	71.3	71.3	71.3	82	65.5	1	3	0	0.00	29.733 
09:05	71.6	71.6	71.6	81	65.4	1	3	292	0.00	29.733 
09:10	71.6	71.6	71.6	80	65.1	1	5	292	0.00	29.733 
09:15	71.6	71.6	71.6	80	65.1	0	3	270	0.00	29.731 
09:20	71.6	71.6	71.6	80	65.1	1	3	270	0.00	29.731 
09:25	71.8	71.8	71.8	81	65.6	0	3	270	0.00	29.731 
09:30	72.0	72.0	72.0	80	65.5	0	2	270	0.00	29.742 
09:35	71.8	71.8	71.8	79	64.9	1	4	292	0.00	29.742 
09:40	71.6	71.6	71.6	80	65.1	0	3	338	0.00	29.742 
09:45	71.5	71.5	71.5	80	65.0	0	4	315	0.00	29.743 
09:50	71.3	71.3	71.3	81	65.2	0	2	292	0.00	29.743 
09:55	71.3	71.3	71.3	81	65.2	0	2	292	0.00	29.743 
10:00	71.3	71.3	71.3	81	65.2	0	2	292	0.00	29.748 
10:05	71.3	71.3	71.3	81	65.2	2	6	292	0.00	29.748 
10:10	71.5	71.5	71.5	80	65.0	1	3	292	0.00	29.748 
10:15	71.5	71.5	71.5	80	65.0	1	3	315	0.00	29.757 
10:20	71.3	71.3	71.3	81	65.2	2	5	292	0.00	29.757 
10:25	71.3	71.3	71.3	81	65.2	0	3	292	0.00	29.757 
10:30	71.3	71.3	71.3	82	65.5	0	3	292	0.00	29.760 
10:35	71.3	71.3	71.3	82	65.5	0	2	292	0.00	29.760 
10:40	71.3	71.3	71.3	82	65.5	1	4	292	0.00	29.760 
10:45	71.5	71.5	71.5	82	65.7	1	3	292	0.00	29.761 
10:50	71.5	71.5	71.5	82	65.7	0	3	292	0.00	29.761 
10:55	71.6	71.6	71.6	83	66.2	0	2	292	0.00	29.761 
11:00	71.8	71.8	71.8	82	66.0	1	3	292	0.00	29.761 
11:05	71.6	71.6	71.6	82	65.8	1	3	292	0.00	29.761 
11:10	71.6	71.6	71.6	81	65.4	1	4	292	0.00	29.761 
11:15	71.6	71.6	71.6	82	65.8	0	3	292	0.00	29.772 
11:20	71.6	71.6	71.6	82	65.8	0	4	248	0.00	29.772 
11:25	71.6	71.6	71.6	82	65.8	1	3	248	0.00	29.772 
11:30	71.5	71.5	71.5	82	65.7	1	4	248	0.00	29.775 
11:35	71.3	71.3	71.3	83	65.9	1	4	248	0.00	29.775 
11:40	71.1	71.1	71.1	83	65.7	1	3	248	0.00	29.775 
11:45	71.1	71.1	71.1	83	65.7	0	3	248	0.00	29.776 
11:50	71.1	71.1	71.1	83	65.7	1	3	248	0.00	29.776 
11:55	71.1	71.1	71.1	84	66.0	0	2	248	0.00	29.776 
12:00	71.3	71.3	71.3	84	66.2	1	3	248	0.00	29.775 
12:05	71.5	71.5	71.5	84	66.4	1	4	248	0.00	29.775 
12:10	71.6	71.6	71.6	83	66.2	1	4	248	0.00	29.775 
12:15	71.6	71.6	71.6	83	66.2	2	5	292	0.00	29.773 
12:20	71.8	71.8	71.8	83	66.3	0	2	292	0.00	29.773 
12:25	72.3	72.3	72.3	83	66.8	1	4	270	0.00	29.773 
12:30	73.2	73.2	73.2	82	67.4	1	4	270	0.00	29.771 
12:35	73.7	73.7	73.7	81	67.5	1	3	270	0.00	29.771 
12:40	74.6	74.6	74.6	80	68.0	1	4	270	0.00	29.771 
12:45	75.1	75.1	76.0	78	67.8	1	4	270	0.00	29.767 
12:50	75.6	75.6	76.7	77	67.9	2	4	270	0.00	29.767 
12:55	76.1	76.1	77.4	77	68.3	2	4	292	0.00	29.767 
13:00	76.5	76.5	78.0	76	68.4	1	3	292	0.00	29.763 
13:05	76.8	76.8	78.5	73	67.5	2	4	292	0.00	29.763 
13:10	77.2	77.2	79.0	73	67.9	1	4	292	0.00	29.763 
13:15	77.7	77.7	79.7	73	68.3	0	3	22	0.00	29.758 
13:20	77.9	77.9	79.9	71	67.7	1	2	338	0.00	29.758 
13:25	77.9	77.9	79.9	71	67.7	1	4	315	0.00	29.758 
13:30	78.1	78.1	80.2	70	67.5	1	4	315	0.00	29.756 
13:35	78.5	78.5	80.7	70	67.9	1	3	315	0.00	29.756 
13:40	78.8	78.8	81.0	68	67.3	1	3	315	0.00	29.756 
13:45	79.2	79.2	81.5	68	67.7	0	3	315	0.00	29.753 
13:50	79.8	79.8	82.5	69	68.7	0	3	315	0.00	29.753 
13:55	79.9	79.9	82.3	66	67.5	1	2	315	0.00	29.753 
14:00	79.9	79.9	82.0	63	66.2	1	4	292	0.00	29.742 
14:05	80.1	80.1	82.5	65	67.2	1	3	292	0.00	29.742 
14:10	80.3	80.3	82.8	65	67.4	0	3	292	0.00	29.742 
14:15	80.9	80.9	83.2	62	66.6	0	1	292	0.00	29.740 
14:20	81.1	81.1	83.0	59	65.4	0	2	292	0.00	29.740 
14:25	81.2	81.2	83.2	59	65.5	1	3	292	0.00	29.740 
14:30	81.4	81.4	83.4	59	65.7	1	4	292	0.00	29.735 
14:35	81.6	81.6	83.7	59	65.9	0	2	292	0.00	29.735 
14:40	82.0	82.0	83.6	55	64.2	0	2	292	0.00	29.735 
14:45	82.4	82.4	84.4	57	65.6	0	3	292	0.00	29.741 
14:50	82.8	82.8	85.0	57	66.0	1	3	292	0.00	29.741 
14:55	82.6	82.6	84.1	54	64.2	2	4	292	0.00	29.741 
15:00	82.6	82.6	84.5	56	65.3	1	3	292	0.00	29.740 
15:05	82.6	82.6	83.6	51	62.6	1	4	292	0.00	29.740 
15:10	82.6	82.6	84.1	54	64.2	1	4	292	0.00	29.740 
15:15	82.4	82.4	83.5	52	63.0	2	5	270	0.00	29.738 
15:20	82.4	82.4	83.9	54	64.1	2	4	270	0.00	29.738 
15:25	82.4	82.4	84.2	56	65.1	1	4	292	0.00	29.738 
15:30	83.0	83.0	84.7	54	64.6	1	4	292	0.00	29.736 
15:35	83.2	83.2	84.9	54	64.8	1	3	292	0.00	29.736 
15:40	83.6	83.6	85.0	52	64.1	1	4	292	0.00	29.736 
15:45	83.4	83.4	84.4	50	62.8	2	4	292	0.00	29.737 
15:50	83.4	83.4	84.4	50	62.8	2	4	292	0.00	29.737 
15:55	83.6	83.6	84.8	51	63.5	2	3	292	0.00	29.737 
16:00	84.0	84.0	85.1	50	63.3	1	4	292	0.00	29.736 
16:05	84.1	84.1	85.3	50	63.4	1	4	292	0.00	29.736 
16:10	84.1	84.1	85.3	50	63.4	2	5	292	0.00	29.736 
16:15	84.1	84.1	85.3	50	63.4	1	4	292	0.00	29.737 
16:20	84.1	84.1	85.3	50	63.4	1	4	292	0.00	29.737 
16:25	84.3	84.3	85.5	50	63.6	2	5	292	0.00	29.737 
16:30	84.3	84.3	85.5	50	63.6	1	5	292	0.00	29.736 
16:35	84.3	84.3	85.5	50	63.6	1	3	338	0.00	29.736 
16:40	83.8	83.8	84.7	49	62.6	1	4	292	0.00	29.736 
16:45	83.6	83.6	84.6	50	63.0	1	4	315	0.00	29.741 
16:50	83.8	83.8	84.7	49	62.6	1	5	292	0.00	29.741 
16:55	84.0	84.0	84.9	49	62.8	1	4	270	0.00	29.741 
17:00	84.3	84.3	85.3	49	63.0	1	3	270	0.00	29.740 
17:05	84.7	84.7	85.8	49	63.4	1	3	270	0.00	29.740 
17:10	84.9	84.9	85.8	48	63.0	1	3	270	0.00	29.740 
17:15	84.9	84.9	85.8	48	63.0	1	2	270	0.00	29.737 
17:20	84.5	84.5	85.6	49	63.2	1	3	292	0.00	29.737 
17:25	84.1	84.1	84.4	46	61.1	1	5	292	0.00	29.737 
17:30	83.8	83.8	83.9	45	60.2	1	2	248	0.00	29.740 
17:35	83.8	83.8	83.9	45	60.2	1	5	292	0.00	29.740 
17:40	84.0	84.0	84.0	44	59.7	2	5	292	0.00	29.740 
17:45	84.3	84.3	84.5	45	60.6	1	5	270	0.00	29.740 
17:50	84.5	84.5	84.7	45	60.8	1	3	270	0.00	29.740 
17:55	84.3	84.3	84.9	47	61.8	1	4	270	0.00	29.740 
18:00	84.1	84.1	84.1	44	59.8	2	6	270	0.00	29.739 
18:05	84.0	84.0	84.3	46	61.0	2	4	292	0.00	29.739 
18:10	83.8	83.8	84.3	47	61.4	1	3	270	0.00	29.739 
18:15	83.4	83.4	84.0	48	61.6	1	4	270	0.00	29.738 
18:20	83.2	83.2	83.4	46	60.2	1	4	270	0.00	29.738 
18:25	82.8	82.8	83.2	47	60.5	2	5	292	0.00	29.738 
18:30	83.0	83.0	83.5	48	61.3	1	5	292	0.00	29.732 
18:35	82.6	82.6	83.3	49	61.5	1	3	292	0.00	29.732 
18:40	82.4	82.4	83.0	49	61.3	1	4	292	0.00	29.732 
18:45	82.4	82.4	83.4	51	62.4	2	4	292	0.00	29.728 
18:50	82.2	82.2	83.3	52	62.8	2	5	292	0.00	29.728 
18:55	82.0	82.0	83.4	54	63.7	1	4	292	0.00	29.728 
19:00	81.8	81.8	83.3	55	64.0	0	2	292	0.00	29.727 
19:05	81.8	81.8	83.3	55	64.0	1	4	292	0.00	29.727 
19:10	82.0	82.0	82.5	48	60.3	2	5	292	0.00	29.727 
19:15	82.0	82.0	82.5	48	60.3	2	6	270	0.00	29.724 
19:20	81.6	81.6	82.1	48	60.0	2	5	270	0.00	29.724 
19:25	81.2	81.2	81.8	49	60.2	2	5	270	0.00	29.724 
19:30	80.9	80.9	81.5	49	59.9	2	4	270	0.00	29.728 
19:35	80.5	80.5	81.3	50	60.1	1	4	270	0.00	29.728 
19:40	80.3	80.3	81.2	51	60.5	1	3	270	0.00	29.728 
19:45	80.5	80.5	81.4	51	60.7	0	3	270	0.00	29.733 
19:50	80.7	80.7	81.7	52	61.4	1	3	270	0.00	29.733 
19:55	80.7	80.7	81.6	51	60.9	1	3	270	0.00	29.733 
20:00	80.7	80.7	81.7	52	61.4	0	2	270	0.00	29.731 
20:05	80.7	80.7	81.7	52	61.4	1	2	270	0.00	29.731 
20:10	80.5	80.5	81.4	51	60.7	1	4	270	0.00	29.731 
20:15	80.1	80.1	81.1	52	60.9	1	4	270	0.00	29.728 
20:20	79.9	79.9	81.0	53	61.2	0	3	270	0.00	29.728 
20:25	79.6	79.6	80.7	53	60.9	0	2	270	0.00	29.728 
20:30	79.6	79.6	80.8	54	61.5	1	5	315	0.00	29.726 
20:35	79.4	79.4	80.6	54	61.3	0	2	292	0.00	29.726 
20:40	79.4	79.4	80.6	54	61.3	0	1	292	0.00	29.726 
20:45	79.2	79.2	80.5	55	61.6	0	1	292	0.00	29.723 
20:50	78.8	78.8	80.2	56	61.8	0	1	292	0.00	29.723 
20:55	78.6	78.6	80.0	56	61.6	0	1	292	0.00	29.723 
21:00	78.3	78.3	79.8	57	61.8	0	1	292	0.00	29.729 
21:05	78.1	78.1	79.7	58	62.1	0	0	---	0.00	29.729 
21:10	77.9	77.9	79.5	58	61.9	0	1	292	0.00	29.729 
21:15	77.7	77.7	79.4	59	62.2	0	1	292	0.00	29.739 
21:20	77.6	77.6	79.3	59	62.1	0	0	---	0.00	29.739 
21:25	77.4	77.4	79.1	60	62.4	0	1	292	0.00	29.739 
21:30	77.4	77.4	79.1	60	62.4	0	1	292	0.00	29.743 
21:35	77.4	77.4	79.1	61	62.9	0	0	---	0.00	29.743 
21:40	77.2	77.2	79.0	61	62.7	0	0	---	0.00	29.743 
21:45	77.2	77.2	79.0	61	62.7	0	1	292	0.00	29.752 
21:50	77.2	77.2	79.0	61	62.7	0	0	---	0.00	29.752 
21:55	77.2	77.2	79.0	61	62.7	0	1	292	0.00	29.752 
22:00	77.2	77.2	79.0	61	62.7	0	1	292	0.00	29.754 
22:05	77.2	77.2	78.9	60	62.2	0	1	292	0.00	29.754 
22:10	77.4	77.4	79.1	60	62.4	0	2	292	0.00	29.754 
22:15	77.4	77.4	79.1	60	62.4	0	2	292	0.00	29.749 
22:20	77.2	77.2	79.0	61	62.7	0	2	292	0.00	29.749 
22:25	77.2	77.2	79.0	61	62.7	0	2	292	0.00	29.749 
22:30	77.0	77.0	78.8	61	62.5	0	2	292	0.00	29.744 
22:35	77.0	77.0	78.8	61	62.5	0	1	292	0.00	29.744 
22:40	76.8	76.8	78.6	62	62.8	0	1	292	0.00	29.744 
22:45	76.7	76.7	78.5	62	62.7	0	2	292	0.00	29.751 
22:50	76.7	76.7	78.5	61	62.2	1	3	292	0.00	29.751 
22:55	76.7	76.7	78.5	62	62.7	0	1	292	0.00	29.751 
23:00	76.5	76.5	78.4	62	62.5	0	1	292	0.00	29.760 
23:05	76.3	76.3	78.2	62	62.3	0	2	292	0.00	29.760 
23:10	76.1	76.1	78.0	63	62.6	0	2	292	0.00	29.760 
23:15	76.0	76.0	77.9	63	62.5	0	2	292	0.00	29.767 
23:20	76.0	76.0	77.9	63	62.5	0	2	292	0.00	29.767 
23:25	76.0	76.0	77.9	63	62.5	0	2	292	0.00	29.767 
23:30	76.0	76.0	77.9	64	62.9	0	2	292	0.00	29.767 
23:35	75.8	75.8	77.7	64	62.7	0	3	292	0.00	29.767 
23:40	75.6	75.6	77.5	65	63.0	0	2	292	0.00	29.767 
23:45	75.6	75.6	77.5	65	63.0	0	3	292	0.00	29.766 
23:50	75.4	75.4	77.4	65	62.8	0	1	292	0.00	29.766 
23:55	75.4	75.4	77.4	65	62.8	0	2	292	0.00	29.766 

CoCoRaHS
IN-AL-39
A2 Web Hosting
Creative Commons License
GoDaddy
search engine by freefind advanced

loaded 2018-11-15 14:46:28 • last modified 2010-11-18 10:43:29
Privacy PolicyDisclaimer
• wx.awcolley.com is powered by PmWiki v.2002016 •
• all content (unless otherwise noted) © 2018 A W Colley